Lazear, Colorado
Current Conditions -  °F | °C
As of 8:55 AM on Tuesday 21 Oct 2014 (Local Time) from KAJZ Reporting Station
Overcast Overcast  
Wind Chill: 56°   Ceiling: 12000
Heat Index: 56°   Visibility: 10mi
Dew Point: 43°   Wind: 6mph
Humidity: 62%   Direction: 40°NE
Pressure: 30.12"   Gusts: NA
Location:  38.78°N, 107.78°W
Report Text: KAJZ 211455Z AUTO 04005KT 10SM OVC120 13/06 A3012 RMK AO2 T01320060
Loading
Personal Weather Stations






























Interactive Weather Map
Tropical Storm Tracking
New forecast layout! Learn more

10-Day Weather Forecast

Advertisements
Track Severe Weather on mobile